createdAt,value
2023-01-20T00:01:20.547Z,100095.19
2023-01-20T00:03:48.199Z,100091.59
2023-01-20T00:06:15.268Z,100063.28
2023-01-20T00:08:42.492Z,100093.56
2023-01-20T00:11:12.704Z,100091.38
2023-01-20T00:13:40.092Z,100073.03
2023-01-20T00:16:09.504Z,100085.72
2023-01-20T00:18:37.047Z,100077.00
2023-01-20T00:21:08.068Z,100071.22
2023-01-20T00:23:35.560Z,100079.44
2023-01-20T00:26:11.283Z,100094.78
2023-01-20T00:28:38.717Z,100089.28
2023-01-20T00:31:16.034Z,100043.81
2023-01-20T00:33:43.161Z,100045.72
2023-01-20T00:36:11.192Z,100056.78
2023-01-20T00:38:38.584Z,100083.56
2023-01-20T00:41:06.112Z,100067.88
2023-01-20T00:43:33.370Z,100089.19
2023-01-20T00:46:00.439Z,100094.31
2023-01-20T00:48:27.442Z,100100.41
2023-01-20T00:50:54.479Z,100089.72
2023-01-20T00:53:21.506Z,100081.19
2023-01-20T00:55:48.431Z,100090.72
2023-01-20T00:58:15.759Z,100081.91
2023-01-20T01:00:43.183Z,100063.16
2023-01-20T01:03:13.028Z,100050.06
2023-01-20T01:05:40.108Z,100095.00
2023-01-20T01:08:07.166Z,100086.78
2023-01-20T01:10:34.090Z,100032.44
2023-01-20T01:13:03.182Z,100090.38
2023-01-20T01:15:30.275Z,100089.91
2023-01-20T01:17:58.816Z,100091.03
2023-01-20T01:20:26.851Z,100096.16
2023-01-20T01:22:53.811Z,100089.41
2023-01-20T01:25:20.987Z,100076.38
2023-01-20T01:27:47.912Z,100088.41
2023-01-20T01:30:14.917Z,100084.13
2023-01-20T01:32:41.808Z,100080.59
2023-01-20T01:35:08.916Z,100103.66
2023-01-20T01:37:35.839Z,100095.25
2023-01-20T01:40:02.845Z,100082.44
2023-01-20T01:42:29.925Z,100081.50
2023-01-20T01:45:12.381Z,100094.75
2023-01-20T01:47:48.252Z,100097.06
2023-01-20T01:50:20.470Z,100091.31
2023-01-20T01:52:50.382Z,100058.78
2023-01-20T01:55:21.049Z,100092.28
2023-01-20T01:57:50.305Z,100096.31
2023-01-20T02:00:17.518Z,100092.19
2023-01-20T02:02:45.878Z,100099.41
2023-01-20T02:05:15.188Z,100099.66
2023-01-20T02:07:45.352Z,100089.13
2023-01-20T02:10:12.469Z,100091.09
2023-01-20T02:12:41.312Z,100087.88
2023-01-20T02:15:09.131Z,100082.31
2023-01-20T02:17:57.586Z,100084.59
2023-01-20T02:20:56.936Z,100094.53
2023-01-20T02:23:58.732Z,100101.50
2023-01-20T02:26:44.057Z,100093.44
2023-01-20T02:29:26.678Z,100095.50
2023-01-20T02:32:08.392Z,100090.28
2023-01-20T02:35:20.037Z,100078.28
2023-01-20T02:37:55.482Z,100102.38
2023-01-20T02:40:39.633Z,100089.25
2023-01-20T02:43:12.006Z,100098.94
2023-01-20T02:45:47.716Z,100101.88
2023-01-20T02:48:27.806Z,100108.53
2023-01-20T02:51:09.317Z,100085.97
2023-01-20T02:53:47.902Z,100110.31
2023-01-20T02:56:16.970Z,100106.81
2023-01-20T02:58:50.418Z,100109.22
2023-01-20T03:01:37.208Z,100119.84
2023-01-20T03:04:07.523Z,100113.06
2023-01-20T03:06:38.157Z,100108.47
2023-01-20T03:09:09.058Z,100124.91
2023-01-20T03:11:41.170Z,100096.09
2023-01-20T03:14:12.584Z,100114.13
2023-01-20T03:16:40.605Z,100123.56
2023-01-20T03:19:08.207Z,100111.84
2023-01-20T03:21:35.417Z,100129.94
2023-01-20T03:24:04.573Z,100135.38
2023-01-20T03:26:31.853Z,100138.22
2023-01-20T03:28:59.666Z,100127.31
2023-01-20T03:31:31.032Z,100111.97
2023-01-20T03:34:00.888Z,100134.50
2023-01-20T03:36:30.291Z,100105.31
2023-01-20T03:38:59.396Z,100137.59
2023-01-20T03:41:44.472Z,100135.44
2023-01-20T03:44:24.095Z,100079.88
2023-01-20T03:46:58.861Z,100160.69
2023-01-20T03:49:36.645Z,100146.81
2023-01-20T03:52:13.683Z,100141.16
2023-01-20T03:55:06.933Z,100150.44
2023-01-20T03:57:41.906Z,100143.06
2023-01-20T04:00:10.812Z,100124.16
2023-01-20T04:02:41.837Z,100142.66
2023-01-20T04:05:10.337Z,100151.00
2023-01-20T04:07:40.204Z,100146.22
2023-01-20T04:10:12.296Z,100152.25
2023-01-20T04:12:39.877Z,100155.03
2023-01-20T04:15:08.171Z,100155.78
2023-01-20T04:17:35.114Z,100154.16
2023-01-20T04:20:08.008Z,100159.44
2023-01-20T04:22:39.112Z,100145.09
2023-01-20T04:25:15.606Z,100138.41
2023-01-20T04:27:42.654Z,100145.88
2023-01-20T04:30:10.479Z,100140.09
2023-01-20T04:32:37.420Z,100089.13
2023-01-20T04:35:04.621Z,100164.44
2023-01-20T04:37:31.606Z,100171.25
2023-01-20T04:39:58.638Z,100126.72
2023-01-20T04:42:25.796Z,100164.94
2023-01-20T04:44:52.736Z,100183.94
2023-01-20T04:47:19.703Z,100182.56
2023-01-20T04:49:46.607Z,100175.06
2023-01-20T04:52:13.598Z,100172.44
2023-01-20T04:54:40.584Z,100184.78
2023-01-20T04:57:07.562Z,100190.34
2023-01-20T04:59:34.646Z,100188.00
2023-01-20T05:02:01.725Z,100181.75
2023-01-20T05:04:28.825Z,100158.13
2023-01-20T05:06:55.780Z,100194.72
2023-01-20T05:09:22.774Z,100199.28
2023-01-20T05:11:49.677Z,100197.78
2023-01-20T05:14:16.603Z,100186.97
2023-01-20T05:16:43.920Z,100194.66
2023-01-20T05:19:12.667Z,100204.19
2023-01-20T05:21:39.731Z,100195.44
2023-01-20T05:24:06.863Z,100204.31
2023-01-20T05:26:33.767Z,100207.00
2023-01-20T05:29:01.025Z,100180.50
2023-01-20T05:31:28.030Z,100203.69
2023-01-20T05:33:55.039Z,100198.31
2023-01-20T05:36:21.935Z,100195.75
2023-01-20T05:38:48.852Z,100199.44
2023-01-20T05:41:15.912Z,100200.88
2023-01-20T05:43:42.859Z,100204.31
2023-01-20T05:46:09.814Z,100188.56
2023-01-20T05:48:36.815Z,100175.66
2023-01-20T05:51:03.852Z,100203.25
2023-01-20T05:53:30.822Z,100205.47
2023-01-20T05:56:02.400Z,100216.09
2023-01-20T05:58:29.989Z,100201.03
2023-01-20T06:01:05.563Z,100216.47
2023-01-20T06:03:32.574Z,100161.72
2023-01-20T06:06:01.160Z,100222.94
2023-01-20T06:08:28.128Z,100227.25
2023-01-20T06:10:55.392Z,100223.50
2023-01-20T06:13:22.528Z,100210.72
2023-01-20T06:15:53.786Z,100218.66
2023-01-20T06:18:21.940Z,100214.91
2023-01-20T06:20:48.876Z,100229.34
2023-01-20T06:23:16.209Z,100239.38
2023-01-20T06:25:44.052Z,100227.16
2023-01-20T06:28:10.969Z,100159.88
2023-01-20T06:30:38.745Z,100210.59
2023-01-20T06:33:10.668Z,100233.84
2023-01-20T06:35:38.361Z,100237.22
2023-01-20T06:38:05.303Z,100235.81
2023-01-20T06:40:32.225Z,100264.31
2023-01-20T06:42:59.461Z,100243.31
2023-01-20T06:45:26.517Z,100211.47
2023-01-20T06:47:53.481Z,100251.53
2023-01-20T06:50:20.400Z,100247.28
2023-01-20T06:52:47.347Z,100237.53
2023-01-20T06:55:14.754Z,100265.78
2023-01-20T06:57:41.823Z,100245.69
2023-01-20T07:00:09.572Z,100250.38
2023-01-20T07:02:36.489Z,100273.03
2023-01-20T07:05:04.762Z,100277.66
2023-01-20T07:07:31.745Z,100294.38
2023-01-20T07:09:58.692Z,100276.84
2023-01-20T07:12:25.667Z,100262.75
2023-01-20T07:14:52.620Z,100278.03
2023-01-20T07:17:19.565Z,100281.63
2023-01-20T07:19:46.556Z,100308.50
2023-01-20T07:22:13.646Z,100288.22
2023-01-20T07:24:40.587Z,100297.03
2023-01-20T07:27:07.491Z,100264.81
2023-01-20T07:29:34.532Z,100297.56
2023-01-20T07:32:01.494Z,100257.41
2023-01-20T07:34:28.521Z,100299.31
2023-01-20T07:36:55.487Z,100306.16
2023-01-20T07:39:22.457Z,100311.06
2023-01-20T07:41:49.842Z,100305.69
2023-01-20T07:44:16.915Z,100311.66
2023-01-20T07:46:43.866Z,100310.25
2023-01-20T07:49:12.404Z,100304.22
2023-01-20T07:51:40.069Z,100310.72
2023-01-20T07:54:07.209Z,100309.09
2023-01-20T07:56:34.209Z,100310.78
2023-01-20T07:59:01.226Z,100314.00
2023-01-20T08:01:31.027Z,100323.47
2023-01-20T08:04:02.400Z,100317.47
2023-01-20T08:06:30.195Z,100320.47
2023-01-20T08:09:01.161Z,100305.84
2023-01-20T08:11:28.871Z,100319.72
2023-01-20T08:13:56.052Z,100315.75
2023-01-20T08:16:23.279Z,100293.81
2023-01-20T08:18:53.032Z,100304.69
2023-01-20T08:21:21.449Z,100310.25
2023-01-20T08:23:48.633Z,100293.16
2023-01-20T08:26:15.822Z,100282.50
2023-01-20T08:28:43.020Z,100305.06
2023-01-20T08:31:13.239Z,100314.97
2023-01-20T08:33:42.658Z,100289.84
2023-01-20T08:36:15.356Z,100317.16
2023-01-20T08:38:42.881Z,100319.84
2023-01-20T08:41:16.543Z,100315.97
2023-01-20T08:43:44.125Z,100319.88
2023-01-20T08:46:14.182Z,100305.28
2023-01-20T08:48:42.715Z,100310.25
2023-01-20T08:51:14.391Z,100306.59
2023-01-20T08:53:42.597Z,100299.16
2023-01-20T08:56:10.892Z,100305.78
2023-01-20T08:58:38.580Z,100324.88
2023-01-20T09:01:11.828Z,100311.28
2023-01-20T09:03:40.130Z,100313.50
2023-01-20T09:06:08.612Z,100318.94
2023-01-20T09:08:37.311Z,100304.97
2023-01-20T09:11:06.124Z,100333.59
2023-01-20T09:13:33.264Z,100319.88
2023-01-20T09:16:00.596Z,100341.97
2023-01-20T09:18:27.648Z,100321.03
2023-01-20T09:20:55.035Z,100347.63
2023-01-20T09:23:22.004Z,100308.66
2023-01-20T09:25:48.942Z,100363.13
2023-01-20T09:28:15.945Z,100335.06
2023-01-20T09:30:48.077Z,100345.06
2023-01-20T09:33:15.354Z,100329.56
2023-01-20T09:35:42.443Z,100349.19
2023-01-20T09:38:28.586Z,100345.59
2023-01-20T09:41:33.306Z,100369.91
2023-01-20T09:44:18.291Z,100363.28
2023-01-20T09:47:22.466Z,100359.91
2023-01-20T09:50:52.948Z,100367.09
2023-01-20T09:53:46.956Z,100367.09
2023-01-20T09:56:18.285Z,100378.56
2023-01-20T09:59:03.571Z,100388.78
2023-01-20T10:01:44.769Z,100371.53
2023-01-20T10:04:40.114Z,100374.09
2023-01-20T10:07:34.993Z,100375.91
2023-01-20T10:10:10.826Z,100382.38
2023-01-20T10:12:55.651Z,100343.31
2023-01-20T10:15:29.892Z,100380.19
2023-01-20T10:18:09.740Z,100275.63
2023-01-20T10:20:46.998Z,100387.50
2023-01-20T10:23:22.767Z,100365.41
2023-01-20T10:26:09.850Z,100362.13
2023-01-20T10:28:58.614Z,100387.50
2023-01-20T10:31:33.511Z,100360.94
2023-01-20T10:34:09.168Z,100387.09
2023-01-20T10:36:37.049Z,100380.25
2023-01-20T10:39:26.581Z,100365.19
2023-01-20T10:42:02.282Z,100364.66
2023-01-20T10:44:29.223Z,100359.66
2023-01-20T10:47:17.274Z,100375.28
2023-01-20T10:50:11.933Z,100382.22
2023-01-20T10:52:38.900Z,100377.81
2023-01-20T10:55:28.545Z,100387.03
2023-01-20T10:58:08.309Z,100378.16
2023-01-20T11:00:35.920Z,100379.25
2023-01-20T11:03:06.320Z,100386.44
2023-01-20T11:05:38.318Z,100378.72
2023-01-20T11:08:16.622Z,100364.63
2023-01-20T11:10:44.400Z,100376.75
2023-01-20T11:13:12.218Z,100385.84
2023-01-20T11:15:45.218Z,100395.88
2023-01-20T11:18:15.135Z,100283.22
2023-01-20T11:20:44.892Z,100396.97
2023-01-20T11:23:41.024Z,100394.97
2023-01-20T11:26:27.939Z,100398.38
2023-01-20T11:29:02.837Z,100390.72
2023-01-20T11:31:46.790Z,100392.13
2023-01-20T11:34:21.415Z,100394.47
2023-01-20T11:36:50.190Z,100375.56
2023-01-20T11:39:49.437Z,100402.56
2023-01-20T11:42:20.439Z,100363.34
2023-01-20T11:45:15.264Z,100392.94
2023-01-20T11:47:46.461Z,100399.25
2023-01-20T11:50:13.807Z,100392.47
2023-01-20T11:52:47.340Z,100397.22
2023-01-20T11:55:24.584Z,100394.09
2023-01-20T11:57:51.476Z,100398.22
2023-01-20T12:00:21.357Z,100405.16
2023-01-20T12:03:43.479Z,100405.75
2023-01-20T12:06:28.137Z,100411.25
2023-01-20T12:09:06.882Z,100409.63
2023-01-20T12:12:02.338Z,100414.16
2023-01-20T12:14:45.864Z,100412.47
2023-01-20T12:17:19.024Z,100360.38
2023-01-20T12:20:17.106Z,100439.25
2023-01-20T12:23:06.269Z,100438.56
2023-01-20T12:25:55.702Z,100438.78
2023-01-20T12:28:29.374Z,100431.63
2023-01-20T12:30:59.109Z,100453.66
2023-01-20T12:33:30.972Z,100444.41
2023-01-20T12:36:16.936Z,100448.13
2023-01-20T12:38:53.215Z,100445.16
2023-01-20T12:41:39.012Z,100430.53
2023-01-20T12:44:24.806Z,100447.47
2023-01-20T12:47:01.715Z,100447.94
2023-01-20T12:49:41.037Z,100438.22
2023-01-20T12:52:47.347Z,100450.19
2023-01-20T12:55:32.352Z,100450.00
2023-01-20T12:58:17.314Z,100456.84
2023-01-20T13:01:04.107Z,100450.13
2023-01-20T13:04:05.432Z,100448.66
2023-01-20T13:06:37.787Z,100460.59
2023-01-20T13:09:39.828Z,100459.78
2023-01-20T13:12:22.340Z,100452.75
2023-01-20T13:15:13.392Z,100435.28
2023-01-20T13:18:00.367Z,100461.47
2023-01-20T13:20:30.542Z,100471.47
2023-01-20T13:23:04.426Z,100454.13
2023-01-20T13:25:34.157Z,100472.34
2023-01-20T13:28:02.343Z,100469.91
2023-01-20T13:30:48.022Z,100408.53
2023-01-20T13:33:34.911Z,100474.38
2023-01-20T13:36:15.329Z,100482.09
2023-01-20T13:38:43.145Z,100478.63
2023-01-20T13:41:11.065Z,100471.13
2023-01-20T13:43:49.042Z,100480.84
2023-01-20T13:46:17.131Z,100478.78
2023-01-20T13:49:21.647Z,100475.88
2023-01-20T13:51:48.727Z,100471.88
2023-01-20T13:54:34.174Z,100472.44
2023-01-20T13:57:20.444Z,100486.50
2023-01-20T13:59:47.807Z,100487.59
2023-01-20T14:02:22.148Z,100492.06
2023-01-20T14:04:49.463Z,100492.69
2023-01-20T14:07:24.631Z,100470.31
2023-01-20T14:09:56.825Z,100473.38
2023-01-20T14:12:24.064Z,100419.22
2023-01-20T14:14:52.284Z,100498.91
2023-01-20T14:17:22.862Z,100493.38
2023-01-20T14:19:52.699Z,100496.53
2023-01-20T14:22:23.985Z,100491.09
2023-01-20T14:24:53.010Z,100507.31
2023-01-20T14:27:29.787Z,100512.41
2023-01-20T14:29:59.840Z,100505.50
2023-01-20T14:32:34.800Z,100479.84
2023-01-20T14:35:04.592Z,100525.75
2023-01-20T14:37:36.629Z,100532.34
2023-01-20T14:40:27.228Z,100511.16
2023-01-20T14:43:03.077Z,100539.41
2023-01-20T14:45:33.008Z,100518.97
2023-01-20T14:48:02.852Z,100549.06
2023-01-20T14:50:32.349Z,100543.44
2023-01-20T14:52:59.417Z,100546.66
2023-01-20T14:56:00.955Z,100552.81
2023-01-20T14:58:30.676Z,100556.63
2023-01-20T15:01:02.933Z,100562.47
2023-01-20T15:03:31.056Z,100560.56
2023-01-20T15:06:09.040Z,100524.25
2023-01-20T15:08:36.793Z,100577.56
2023-01-20T15:11:18.803Z,100564.00
2023-01-20T15:13:53.040Z,100570.03
2023-01-20T15:16:25.812Z,100559.19
2023-01-20T15:19:17.615Z,100576.28
2023-01-20T15:21:47.302Z,100578.19
2023-01-20T15:24:16.945Z,100567.44
2023-01-20T15:26:45.041Z,100575.31
2023-01-20T15:29:28.931Z,100578.13
2023-01-20T15:31:58.201Z,100592.25
2023-01-20T15:34:26.099Z,100583.97
2023-01-20T15:36:54.581Z,100577.78
2023-01-20T15:39:24.367Z,100577.16
2023-01-20T15:41:54.108Z,100573.94
2023-01-20T15:44:21.864Z,100609.66
2023-01-20T15:46:48.862Z,100618.25
2023-01-20T15:49:16.753Z,100597.78
2023-01-20T15:51:44.541Z,100610.06
2023-01-20T15:54:13.808Z,100600.34
2023-01-20T15:56:41.885Z,100582.75
2023-01-20T15:59:13.780Z,100609.03
2023-01-20T16:01:40.935Z,100606.75
2023-01-20T16:04:08.039Z,100625.53
2023-01-20T16:06:35.249Z,100643.38
2023-01-20T16:09:09.120Z,100640.59
2023-01-20T16:11:36.120Z,100642.94
2023-01-20T16:14:03.038Z,100647.72
2023-01-20T16:16:30.146Z,100656.22
2023-01-20T16:18:57.188Z,100671.97
2023-01-20T16:21:24.309Z,100647.63
2023-01-20T16:23:51.363Z,100666.75
2023-01-20T16:26:24.148Z,100649.94
2023-01-20T16:28:52.490Z,100661.13
2023-01-20T16:31:20.068Z,100672.44
2023-01-20T16:33:47.433Z,100667.56
2023-01-20T16:36:17.952Z,100667.91
2023-01-20T16:38:46.200Z,100674.81
2023-01-20T16:41:27.738Z,100658.56
2023-01-20T16:43:55.548Z,100685.69
2023-01-20T16:46:25.633Z,100688.47
2023-01-20T16:48:54.605Z,100665.19
2023-01-20T16:51:25.446Z,100676.97
2023-01-20T16:53:53.348Z,100689.69
2023-01-20T16:56:22.374Z,100699.31
2023-01-20T16:58:51.784Z,100687.47
2023-01-20T17:01:24.839Z,100700.91
2023-01-20T17:03:53.987Z,100693.25
2023-01-20T17:06:24.103Z,100623.97
2023-01-20T17:08:55.988Z,100682.72
2023-01-20T17:11:28.438Z,100700.59
2023-01-20T17:13:56.515Z,100695.13
2023-01-20T17:16:26.132Z,100701.19
2023-01-20T17:18:55.254Z,100722.63
2023-01-20T17:21:23.576Z,100696.53
2023-01-20T17:23:55.271Z,100714.13
2023-01-20T17:26:23.582Z,100721.28
2023-01-20T17:28:54.971Z,100729.91
2023-01-20T17:31:22.746Z,100733.50
2023-01-20T17:33:50.485Z,100716.97
2023-01-20T17:36:18.258Z,100728.91
2023-01-20T17:38:46.068Z,100735.81
2023-01-20T17:41:14.392Z,100746.53
2023-01-20T17:43:46.029Z,100752.38
2023-01-20T17:46:18.686Z,100755.47
2023-01-20T17:48:46.752Z,100746.06
2023-01-20T17:51:22.926Z,100744.25
2023-01-20T17:53:51.556Z,100749.31
2023-01-20T17:56:20.668Z,100742.94
2023-01-20T17:58:48.966Z,100593.47
2023-01-20T18:01:27.889Z,100756.00
2023-01-20T18:03:56.949Z,100760.47
2023-01-20T18:06:26.089Z,100768.97
2023-01-20T18:08:54.271Z,100773.91
2023-01-20T18:11:23.156Z,100776.72
2023-01-20T18:13:55.436Z,100781.00
2023-01-20T18:16:24.244Z,100775.16
2023-01-20T18:18:51.334Z,100773.75
2023-01-20T18:21:23.446Z,100770.72
2023-01-20T18:23:51.391Z,100788.78
2023-01-20T18:26:21.489Z,100793.72
2023-01-20T18:28:49.312Z,100793.63
2023-01-20T18:31:19.239Z,100794.81
2023-01-20T18:33:48.805Z,100781.06
2023-01-20T18:36:28.742Z,100795.53
2023-01-20T18:38:58.802Z,100804.78
2023-01-20T18:41:27.703Z,100803.81
2023-01-20T18:43:54.684Z,100807.81
2023-01-20T18:46:21.675Z,100812.25
2023-01-20T18:48:49.200Z,100819.25
2023-01-20T18:51:20.437Z,100810.47
2023-01-20T18:53:54.401Z,100780.19
2023-01-20T18:56:21.642Z,100788.41
2023-01-20T18:58:49.749Z,100820.28
2023-01-20T19:01:20.112Z,100813.88
2023-01-20T19:03:48.193Z,100814.97
2023-01-20T19:06:21.068Z,100824.63
2023-01-20T19:08:48.628Z,100826.41
2023-01-20T19:11:21.330Z,100836.22
2023-01-20T19:13:50.118Z,100839.13
2023-01-20T19:16:25.638Z,100846.94
2023-01-20T19:18:57.980Z,100844.81
2023-01-20T19:21:25.935Z,100852.69
2023-01-20T19:23:55.142Z,100840.81
2023-01-20T19:26:24.149Z,100842.25
2023-01-20T19:28:58.362Z,100851.28
2023-01-20T19:31:25.679Z,100860.31
2023-01-20T19:33:52.780Z,100862.78
2023-01-20T19:36:20.475Z,100855.53
2023-01-20T19:38:47.639Z,100837.47
2023-01-20T19:41:36.244Z,100871.56
2023-01-20T19:44:06.769Z,100847.72
2023-01-20T19:46:36.904Z,100775.44
2023-01-20T19:49:04.013Z,100879.66
2023-01-20T19:51:32.134Z,100892.09
2023-01-20T19:54:01.220Z,100889.13
2023-01-20T19:56:33.366Z,100897.91
2023-01-20T19:59:01.279Z,100892.09
2023-01-20T20:01:31.776Z,100915.25
2023-01-20T20:03:59.957Z,100919.84
2023-01-20T20:06:38.382Z,100924.22
2023-01-20T20:09:12.248Z,100910.53
2023-01-20T20:11:39.743Z,100911.31
2023-01-20T20:14:09.035Z,100920.38
2023-01-20T20:16:37.574Z,100907.38
2023-01-20T20:19:08.376Z,100917.00
2023-01-20T20:21:35.395Z,100923.94
2023-01-20T20:24:05.270Z,100922.69
2023-01-20T20:26:35.706Z,100925.19
2023-01-20T20:29:05.305Z,100856.38
2023-01-20T20:31:34.310Z,100935.69
2023-01-20T20:34:02.709Z,100940.50
2023-01-20T20:36:31.198Z,100935.78
2023-01-20T20:38:59.325Z,100931.53
2023-01-20T20:41:29.080Z,100939.56
2023-01-20T20:43:57.024Z,100944.69
2023-01-20T20:46:24.385Z,100963.34
2023-01-20T20:48:56.212Z,100960.94
2023-01-20T20:51:26.106Z,100953.38
2023-01-20T20:53:56.644Z,100975.38
2023-01-20T20:56:24.651Z,100967.47
2023-01-20T20:59:03.053Z,100908.13
2023-01-20T21:01:34.320Z,100945.31
2023-01-20T21:04:03.165Z,100976.09
2023-01-20T21:06:31.234Z,100978.81
2023-01-20T21:08:58.895Z,100979.31
2023-01-20T21:11:25.929Z,100993.25
2023-01-20T21:13:54.070Z,101001.22
2023-01-20T21:16:23.495Z,100996.69
2023-01-20T21:18:56.370Z,100997.75
2023-01-20T21:21:24.253Z,101011.19
2023-01-20T21:23:53.420Z,101004.69
2023-01-20T21:26:23.861Z,100937.28
2023-01-20T21:28:51.212Z,101009.03
2023-01-20T21:31:22.632Z,100979.00
2023-01-20T21:33:54.925Z,101021.59
2023-01-20T21:36:23.293Z,101018.53
2023-01-20T21:38:51.447Z,101009.53
2023-01-20T21:41:19.339Z,101023.97
2023-01-20T21:44:06.310Z,101037.59
2023-01-20T21:46:38.443Z,101048.75
2023-01-20T21:49:25.091Z,100975.41
2023-01-20T21:52:10.956Z,101046.31
2023-01-20T21:54:39.903Z,101045.00
2023-01-20T21:57:07.150Z,101055.50
2023-01-20T21:59:34.072Z,101049.56
2023-01-20T22:02:01.162Z,101066.75
2023-01-20T22:04:28.159Z,101059.47
2023-01-20T22:06:55.067Z,101064.22
2023-01-20T22:09:22.017Z,101061.72
2023-01-20T22:11:49.515Z,101062.72
2023-01-20T22:14:16.466Z,101076.94
2023-01-20T22:16:43.526Z,101090.84
2023-01-20T22:19:13.660Z,101078.59
2023-01-20T22:21:40.918Z,101087.19
2023-01-20T22:24:08.814Z,101086.56
2023-01-20T22:26:35.837Z,101089.91
2023-01-20T22:29:02.993Z,101066.91
2023-01-20T22:31:31.353Z,101067.28
2023-01-20T22:33:59.369Z,101051.94
2023-01-20T22:36:26.461Z,101025.78
2023-01-20T22:38:54.000Z,101101.25
2023-01-20T22:41:21.645Z,101113.47
2023-01-20T22:43:50.964Z,101068.00
2023-01-20T22:46:20.657Z,101094.81
2023-01-20T22:48:48.035Z,101120.88
2023-01-20T22:51:18.255Z,101111.78
2023-01-20T22:53:45.592Z,101098.19
2023-01-20T22:56:13.874Z,101125.25
2023-01-20T22:58:41.995Z,101052.28
2023-01-20T23:01:23.617Z,101105.22
2023-01-20T23:04:16.925Z,101134.34
2023-01-20T23:06:43.875Z,101129.00
2023-01-20T23:09:12.595Z,101126.00
2023-01-20T23:11:40.478Z,101131.13
2023-01-20T23:14:09.567Z,101122.00
2023-01-20T23:16:36.851Z,101102.56
2023-01-20T23:19:04.012Z,101134.56
2023-01-20T23:21:31.784Z,101125.91
2023-01-20T23:23:58.989Z,101125.81
2023-01-20T23:26:28.789Z,101059.88
2023-01-20T23:28:56.761Z,101139.81
2023-01-20T23:31:25.437Z,101143.72
2023-01-20T23:33:53.783Z,101135.03
2023-01-20T23:36:25.423Z,101149.47
2023-01-20T23:38:56.539Z,101132.38
2023-01-20T23:41:24.602Z,101155.84
2023-01-20T23:43:52.066Z,101162.84
2023-01-20T23:46:19.159Z,101170.88
2023-01-20T23:48:47.156Z,101163.28
2023-01-20T23:51:14.781Z,101160.06
2023-01-20T23:53:42.254Z,101173.06
2023-01-20T23:56:18.496Z,101170.53
2023-01-20T23:58:46.091Z,101165.19
